Weather observations for the past three days for
Mc Gregor - Isedor Iverson Airport
Imperial (Metric)
Date Time (cdt) Wind (mph) Vis. (mi.) Weather Sky Cond. Temperature (ºF) Relative Humidity Wind Chill (°F) Heat Index (°F) Pressure Precipitation (in)
Air Dwpt 6 hour altimeter (in) sea level (mb) 1 hr 3 hr 6 hr
Max. Min.
10 14:15 N 8 G 18 10.00 Fair CLR 50 23 35% 47 30.15 0.0
10 13:55 N 15 G 22 10.00 Partly Cloudy SCT050 50 26.6 40% 45 30.16 0.0
10 13:35 NW 10 10.00 Partly Cloudy SCT050 50 26.6 40% 46 30.16 0.0
10 13:15 N 10 G 18 10.00 Fair CLR 48.2 26.6 43% 44 30.16 0.0
10 12:55 N 10 G 17 10.00 Fair CLR 48.2 24.8 40% 44 30.16 0.0
10 12:35 NW 14 10.00 Partly Cloudy SCT050 46.4 26.6 46% 41 30.16 0.0
10 12:15 N 8 10.00 Partly Cloudy SCT049 46.4 24.8 43% 43 30.16 0.0
10 11:55 N 14 10.00 Partly Cloudy SCT049 46.4 26.6 46% 41 30.16 0.0
10 11:35 N 15 G 22 10.00 Partly Cloudy SCT047 44.6 24.8 46% 38 30.15 0.0
10 11:15 N 13 G 17 10.00 Partly Cloudy SCT045 44.6 24.8 46% 39 30.15 0.0
10 10:55 W 9 10.00 Mostly Cloudy BKN043 42.8 24.8 49% 38 30.15 0.0
10 10:35 NW 10 G 17 10.00 Overcast OVC039 42.8 26.6 53% 38 30.15 0.0
10 10:15 NW 12 G 18 10.00 Overcast OVC039 41 26.6 57% 35 30.14 0.0
10 09:55 NW 12 10.00 Overcast OVC037 41 26.6 57% 35 30.14 0.0
10 09:35 NW 13 G 20 10.00 Mostly Cloudy BKN034 BKN043 42.8 26.6 53% 37 30.14 0.0
10 09:15 N 10 G 21 10.00 Partly Cloudy SCT030 41 28.4 61% 35 30.14 0.0
10 08:55 NW 12 G 17 10.00 Partly Cloudy SCT030 39.2 28.4 65% 33 30.13 0.0
10 08:35 N 15 G 20 10.00 Fair CLR 39.2 28.4 65% 31 30.13 0.0
10 08:15 NW 14 10.00 Fair CLR 37.4 28.4 70% 30 30.12 0.0
10 07:55 NW 13 G 20 10.00 Fair CLR 37.4 28.4 70% 30 30.11 0.0
10 07:35 NW 13 10.00 Fair CLR 37.4 28.4 70% 30 30.1 0.0
10 07:15 NW 10 10.00 Fair CLR 37.4 28.4 70% 31 30.09 0.0
10 06:55 NW 10 10.00 Fair CLR 37.4 28.4 70% 31 30.09 0.0
10 06:35 NW 10 G 16 10.00 Fair CLR 37.4 28.4 70% 31 30.08 0.0
10 06:15 NW 8 10.00 Fair CLR 37.4 30.2 75% 32 30.07 0.0
10 05:55 NW 6 10.00 Fair CLR 35.6 30.2 81% 31 30.06 0.0
10 05:35 NW 6 10.00 Fair CLR 37.4 32 81% 33 30.05 0.0
10 05:15 NW 7 10.00 Fair CLR 37.4 32 81% 33 30.04 0.0
10 04:55 NW 9 10.00 Fair CLR 37.4 32 81% 31 30.04 0.0
10 04:35 W 6 10.00 Fair CLR 39.2 32 75% 36 30.02 0.0
10 04:15 W 6 10.00 Fair CLR 39.2 32 75% 36 30.02 0.0
10 03:55 W 3 10.00 Partly Cloudy SCT075 39.2 32 75% 30.01 0.0
10 03:35 W 5 10.00 Partly Cloudy SCT100 41 32 70% 38 30.01 0.0
10 03:15 W 5 10.00 Mostly Cloudy BKN100 41 32 70% 38 30 0.0
10 02:55 W 5 10.00 Overcast OVC100 41 32 70% 38 29.99 0.0
10 02:35 W 5 10.00 Overcast OVC100 41 30.2 66% 38 29.99 0.0
10 02:15 W 6 10.00 Overcast SCT075 SCT090 OVC110 42.8 30.2 61% 40 29.99 0.0
10 01:55 NW 7 10.00 Overcast BKN070 OVC110 42.8 30.2 61% 39 29.99 0.0
10 01:35 NW 6 10.00 Overcast OVC110 42.8 30.2 61% 40 29.98 0.0
10 01:15 NW 8 10.00 Overcast BKN060 OVC110 42.8 30.2 61% 39 29.99 0.0
10 00:55 NW 7 10.00 Overcast BKN070 OVC110 42.8 28.4 57% 39 29.98 0.0
10 00:35 NW 8 10.00 Overcast OVC110 42.8 28.4 57% 39 29.98 0.0
10 00:15 NW 7 10.00 Mostly Cloudy BKN110 42.8 26.6 53% 39 29.97 0.0
09 23:55 NW 5 10.00 Partly Cloudy SCT110 42.8 26.6 53% 41 29.96 0.0
09 23:35 NW 6 10.00 Mostly Cloudy BKN110 42.8 26.6 53% 40 29.95 0.0
09 23:15 NW 5 10.00 Mostly Cloudy SCT080 BKN110 42.8 26.6 53% 41 29.95 0.0
09 22:55 W 3 10.00 Fair CLR 42.8 26.6 53% 29.95 0.0
09 22:35 W 3 10.00 Fair CLR 42.8 24.8 49% 29.95 0.0
09 22:15 W 3 10.00 Fair CLR 42.8 24.8 49% 29.95 0.0
09 21:55 W 3 10.00 Fair CLR 44.6 24.8 46% 29.94 0.0
09 21:35 NW 5 10.00 Partly Cloudy SCT095 46.4 24.8 43% 45 29.94 0.0
09 21:15 NW 7 10.00 Mostly Cloudy BKN095 46.4 23 40% 43 29.93 0.0
09 20:55 NW 7 10.00 Mostly Cloudy BKN085 46.4 23 40% 43 29.92 0.0
09 20:35 NW 10 G 18 10.00 Mostly Cloudy BKN085 48.2 23 37% 44 29.92 0.0
09 20:15 NW 13 G 17 10.00 Mostly Cloudy BKN085 48.2 23 37% 43 29.91 0.0
09 19:55 NW 10 10.00 Overcast SCT075 OVC085 50 24.8 37% 46 29.9 0.0
09 19:35 NW 12 G 21 10.00 Overcast SCT075 OVC085 50 24.8 37% 46 29.89 0.0
09 19:15 NW 16 G 26 10.00 Overcast SCT070 OVC085 50 23 35% 45 29.88 0.0
09 18:55 N 14 G 20 10.00 Overcast OVC070 51.8 26.6 38% 29.87 0.0
09 18:35 NW 13 G 18 10.00 Mostly Cloudy BKN070 BKN090 51.8 24.8 35% 29.87 0.0
09 18:15 N 12 G 22 10.00 Mostly Cloudy SCT080 BKN090 51.8 23 32% 29.86 0.0
09 17:55 NW 17 G 28 10.00 Mostly Cloudy SCT080 BKN090 53.6 23 30% 29.85 0.0
09 17:35 N 17 G 23 10.00 Partly Cloudy SCT085 SCT090 51.8 23 32% 29.84 0.0
09 17:15 NW 15 G 24 10.00 Mostly Cloudy BKN075 BKN095 51.8 23 32% 29.84 0.0
09 16:55 NW 13 10.00 Overcast BKN075 OVC085 53.6 23 30% 29.84 0.0
09 16:35 NW 18 G 22 10.00 Mostly Cloudy BKN080 53.6 23 30% 29.83 0.0
09 16:15 NW 14 G 22 10.00 Partly Cloudy SCT075 SCT095 53.6 23 30% 29.83 0.0
09 15:55 NW 18 10.00 Partly Cloudy SCT075 53.6 23 30% 29.82 0.0
09 15:35 NW 20 G 24 10.00 Partly Cloudy SCT075 53.6 23 30% 29.82 0.0
09 15:15 NW 17 G 24 10.00 Partly Cloudy SCT075 53.6 23 30% 29.81 0.0
09 14:55 NW 21 G 28 10.00 Partly Cloudy and Breezy SCT075 55.4 23 28% 29.81 0.0
09 14:35 N 15 G 25 10.00 Partly Cloudy SCT065 53.6 23 30% 29.8 0.0
09 14:15 NW 17 G 26 10.00 Partly Cloudy SCT065 53.6 24.8 33% 29.8 0.0
09 13:55 NW 15 G 29 10.00 Partly Cloudy SCT065 51.8 23 32% 29.8 0.0
09 13:35 NW 13 G 22 10.00 Partly Cloudy SCT065 53.6 24.8 33% 29.8 0.0
09 13:15 NW 15 G 25 10.00 Partly Cloudy SCT065 51.8 23 32% 29.79 0.0
09 12:55 W 16 G 26 10.00 Partly Cloudy SCT065 51.8 24.8 35% 29.79 0.0
09 12:35 N 23 G 29 10.00 Partly Cloudy and Breezy SCT055 51.8 26.6 38% 29.78 0.0
09 12:15 NW 16 G 25 10.00 Partly Cloudy SCT055 50 24.8 37% 45 29.78 0.0
09 11:55 N 15 G 25 10.00 Partly Cloudy SCT055 50 26.6 40% 45 29.77 0.0
09 11:35 NW 20 G 25 10.00 Partly Cloudy SCT050 50 24.8 37% 44 29.77 0.0
09 11:15 NW 15 G 23 10.00 Partly Cloudy SCT050 46.4 26.6 46% 41 29.77 0.0
09 10:55 NW 16 G 23 10.00 Partly Cloudy SCT050 46.4 26.6 46% 40 29.77 0.0
09 10:35 NW 16 G 25 10.00 Partly Cloudy SCT050 48.2 26.6 43% 43 29.75 0.0
09 10:15 NW 20 G 26 10.00 Fair CLR 48.2 26.6 43% 42 29.75 0.0
09 09:55 N 17 G 25 10.00 Fair CLR 46.4 24.8 43% 40 29.74 0.0
09 09:35 N 16 G 23 10.00 Fair CLR 48.2 24.8 40% 43 29.73 0.0
09 09:15 NW 20 10.00 Fair CLR 48.2 24.8 40% 42 29.72 0.0
09 08:55 NW 15 G 23 10.00 Fair CLR 46.4 23 40% 41 29.72 0.0
09 08:35 NW 15 G 24 10.00 Fair CLR 46.4 23 40% 41 29.71 0.0
09 08:15 N 16 G 26 10.00 Fair CLR 44.6 24.8 46% 38 29.7 0.0
09 07:55 NW 15 G 22 10.00 Fair CLR 44.6 26.6 49% 38 29.69 0.0
09 07:35 NW 10 G 16 10.00 Partly Cloudy SCT090 44.6 30.2 57% 40 29.68 0.0
09 07:15 N 12 G 18 10.00 Overcast OVC090 42.8 32 66% 37 29.68 0.0
09 06:55 N 13 G 17 10.00 Overcast OVC090 42.8 33.8 71% 37 29.67 0.0
09 06:35 NW 9 10.00 Overcast OVC090 42.8 35.6 76% 38 29.65 0.0
09 06:15 NW 8 10.00 Overcast OVC090 42.8 35.6 76% 39 29.65 0.0
09 05:55 NW 7 10.00 Overcast BKN080 OVC090 42.8 35.6 76% 39 29.64 0.0
09 05:35 NW 6 10.00 Overcast SCT060 BKN070 OVC090 42.8 35.6 76% 40 29.63 0.0
09 05:15 W 5 10.00 Overcast SCT045 OVC060 42.8 37.4 81% 41 29.62 0.0
09 04:55 W 3 10.00 Light Drizzle OVC046 42.8 37.4 81% 29.62 0.0
09 04:35 NW 6 10.00 Light Rain OVC043 44.6 35.6 71% 42 29.62 0.0
09 04:15 NW 5 10.00 Light Rain OVC041 44.6 35.6 71% 43 29.62 0.0
09 03:55 NW 5 10.00 Light Drizzle OVC043 44.6 35.6 71% 43 29.61 0.0
09 03:35 N 6 10.00 Light Drizzle OVC045 44.6 35.6 71% 42 29.61 0.0
09 03:15 NW 8 10.00 Overcast BKN045 BKN050 OVC070 46.4 33.8 62% 43 29.61 0.0
09 02:55 W 5 10.00 Rain SCT043 SCT050 OVC070 46.4 33.8 62% 45 29.6 0.0
09 02:35 NW 6 10.00 Light Drizzle SCT050 SCT070 OVC085 46.4 33.8 62% 44 29.6 0.0
09 02:15 NW 6 10.00 Light Drizzle SCT033 BKN060 OVC085 46.4 35.6 66% 44 29.61 0.0
09 01:55 N 10 G 22 10.00 Light Rain SCT025 BKN047 OVC065 48.2 33.8 58% 44 29.62 0.0
09 01:35 NW 13 G 22 10.00 Light Rain SCT048 OVC055 51.8 32 47% 29.62 0.0
09 01:15 NW 9 10.00 Overcast OVC055 51.8 32 47% 29.62 0.0
09 00:55 W 8 10.00 Overcast SCT047 OVC055 51.8 32 47% 29.62 0.0
09 00:35 W 10 G 24 10.00 Overcast SCT044 BKN060 OVC075 51.8 32 47% 29.62 0.0
09 00:15 NW 5 10.00 Overcast SCT050 SCT070 OVC085 44.6 32 61% 43 29.61 0.0
08 23:55 Calm 10.00 Mostly Cloudy BKN085 44.6 30.2 57% 29.6 0.0
08 23:35 Calm 10.00 Fair CLR 44.6 30.2 57% 29.59 0.0
08 23:15 Calm 10.00 Fair CLR 44.6 28.4 53% 29.59 0.0
08 22:55 Calm 10.00 Fair CLR 44.6 30.2 57% 29.6 0.0
08 22:35 Calm 10.00 Fair CLR 46.4 30.2 53% 29.6 0.0
08 22:15 Calm 10.00 Fair CLR 48.2 26.6 43% 29.6 0.0
08 21:55 Calm 10.00 Fair CLR 51.8 26.6 38% 29.6 0.0
08 21:35 NW 5 10.00 Fair CLR 51.8 26.6 38% 29.6 0.0
08 21:15 NW 6 10.00 Fair CLR 53.6 26.6 35% 29.6 0.0
08 20:55 NW 9 10.00 Fair CLR 55.4 26.6 33% 29.59 0.0
08 20:35 NW 10 10.00 Fair CLR 55.4 26.6 33% 29.58 0.0
08 20:15 NW 14 G 22 10.00 Fair CLR 57.2 26.6 31% 29.58 0.0
08 19:55 NW 15 G 21 10.00 Fair CLR 59 26.6 29% 29.57 0.0
08 19:35 NW 12 G 23 10.00 Fair CLR 60.8 26.6 27% 29.56 0.0
08 19:15 NW 15 G 24 10.00 Partly Cloudy SCT090 62.6 28.4 27% 29.56 0.0
08 18:55 NW 15 G 21 10.00 Mostly Cloudy BKN100 BKN120 62.6 30.2 30% 29.55 0.0
08 18:35 NW 14 G 20 10.00 Overcast OVC110 62.6 26.6 25% 29.55 0.0
08 18:15 W 13 G 20 10.00 Overcast OVC100 62.6 24.8 24% 29.55 0.0
08 17:55 W 9 10.00 Overcast OVC110 62.6 24.8 24% 29.55 0.0
08 17:35 W 8 10.00 Mostly Cloudy BKN110 62.6 24.8 24% 29.55 0.0
08 17:15 W 9 G 22 10.00 Overcast OVC110 62.6 24.8 24% 29.56 0.0
08 16:55 W 13 G 17 10.00 Mostly Cloudy SCT095 BKN120 64.4 24.8 22% 29.56 0.0
08 16:35 W 12 G 18 10.00 Mostly Cloudy BKN100 64.4 24.8 22% 29.57 0.0
08 16:15 W 12 G 18 10.00 Mostly Cloudy BKN100 62.6 24.8 24% 29.57 0.0
08 15:55 SW 10 G 21 10.00 Overcast OVC100 62.6 24.8 24% 29.58 0.0
08 15:35 W 14 G 21 10.00 Mostly Cloudy BKN100 64.4 23 21% 29.59 0.0
08 15:15 W 9 G 21 10.00 Mostly Cloudy BKN100 62.6 26.6 25% 29.6 0.0
08 14:55 W 15 G 21 10.00 Mostly Cloudy BKN100 62.6 23 22% 29.61 0.0
08 14:35 W 14 G 21 7.00 Partly Cloudy SCT100 64.4 24.8 22% 29.61 0.0
08 14:15 SW 10 10.00 Partly Cloudy SCT100 62.6 24.8 24% 29.62 0.0
08 13:55 SW 7 G 16 10.00 Fair CLR 62.6 23 22% 29.63 0.0
08 13:35 W 13 G 22 7.00 Partly Cloudy SCT100 62.6 23 22% 29.63 0.0
08 13:15 NW 10 10.00 Partly Cloudy SCT100 SCT120 60.8 23 23% 29.64 0.0
08 12:55 NW 6 G 16 10.00 Partly Cloudy SCT120 62.6 24.8 24% 29.65 0.0
08 12:35 SW 9 10.00 Partly Cloudy SCT120 60.8 24.8 25% 29.66 0.0
08 12:15 SW 7 10.00 Fair CLR 60.8 24.8 25% 29.67 0.0
08 11:55 W 8 10.00 Fair CLR 60.8 23 23% 29.68 0.0
08 11:35 NW 8 10.00 Fair CLR 57.2 21.2 25% 29.7 0.0
08 11:15 NW 7 10.00 Fair CLR 57.2 21.2 25% 29.7 0.0
08 10:55 Calm 10.00 Fair CLR 57.2 23 27% 29.7 0.0
08 10:35 NW 6 10.00 Fair CLR 57.2 23 27% 29.71 0.0
08 10:15 SW 5 10.00 Fair CLR 55.4 23 28% 29.71 0.0
08 09:55 SW 3 10.00 Fair CLR 53.6 26.6 35% 29.72 0.0
08 09:35 SW 5 10.00 Partly Cloudy SCT110 51.8 28.4 41% 29.73 0.0
08 09:15 S 7 7.00 Mostly Cloudy BKN110 48.2 28.4 46% 46 29.73 0.0
08 08:55 S 6 10.00 Mostly Cloudy BKN100 46.4 28.4 50% 44 29.74 0.0
08 08:35 S 6 10.00 Mostly Cloudy BKN100 44.6 30.2 57% 42 29.74 0.0
08 08:15 S 3 10.00 Overcast OVC110 41 30.2 66% 29.75 0.0
08 07:55 S 3 10.00 Mostly Cloudy BKN110 37.4 30.2 75% 29.75 0.0
08 07:35 S 5 10.00 Mostly Cloudy BKN110 37.4 28.4 70% 34 29.75 0.0
08 07:15 SW 3 10.00 Overcast OVC110 35.6 28.4 75% 29.75 0.0
08 06:55 S 3 10.00 Mostly Cloudy BKN110 33.8 28.4 81% 29.74 0.0
08 06:35 Calm 7.00 Partly Cloudy SCT120 32 28.4 87% 29.74 0.0
08 06:15 Calm 5.00 Partly Cloudy with Haze SCT120 30.2 26.6 86% 29.74 0.0
08 05:55 Calm 10.00 Fair CLR 30.2 24.8 80% 29.74 0.0
08 05:35 S 3 10.00 Fair CLR 30.2 24.8 80% 29.74 0.0
08 05:15 Calm 10.00 Fair CLR 30.2 24.8 80% 29.75 0.0
08 04:55 Calm 10.00 Fair CLR 30.2 23 75% 29.75 0.0
08 04:35 Calm 10.00 Fair CLR 32 24.8 75% 29.75 0.0
08 04:15 Calm 10.00 Fair CLR 32 24.8 75% 29.75 0.0
08 03:55 S 3 10.00 Fair CLR 30.2 26.6 86% 29.75 0.0
08 03:35 Calm 10.00 Fair CLR 30.2 26.6 86% 29.76 0.0
08 03:15 Calm 10.00 Fair CLR 30.2 26.6 86% 29.76 0.0
08 02:55 Calm 10.00 Fair CLR 30.2 26.6 86% 29.77 0.0
08 02:35 Calm 10.00 Fair CLR 30.2 24.8 80% 29.77 0.0
08 02:15 Calm 10.00 Fair CLR 30.2 24.8 80% 29.77 0.0
08 01:55 Calm 10.00 Fair CLR 30.2 26.6 86% 29.77 0.0
08 01:35 Calm 10.00 Fair CLR 32 26.6 80% 29.78 0.0
08 01:15 Calm 10.00 Fair CLR 32 26.6 80% 29.78 0.0
08 00:55 Calm 10.00 Fair CLR 32 26.6 80% 29.79 0.0
08 00:35 Calm 10.00 Fair CLR 32 26.6 80% 29.79 0.0
08 00:15 Calm 10.00 Fair CLR 32 26.6 80% 29.79 0.0
07 23:55 Calm 10.00 Fair CLR 32 26.6 80% 29.8 0.0
07 23:35 Calm 10.00 Fair CLR 33.8 24.8 70% 29.8 0.0
07 23:15 Calm 10.00 Fair CLR 33.8 26.6 75% 29.8 0.0
07 22:55 Calm 10.00 Fair CLR 35.6 26.6 70% 29.8 0.0
07 22:35 Calm 10.00 Fair CLR 37.4 26.6 65% 29.8 0.0
07 22:15 Calm 10.00 Fair CLR 37.4 26.6 65% 29.79 0.0
07 21:55 Calm 10.00 Fair CLR 41 24.8 53% 29.79 0.0
07 21:35 Calm 10.00 Fair CLR 42.8 23 46% 29.79 0.0
07 21:15 Calm 10.00 Fair CLR 44.6 21.2 39% 29.78 0.0
07 20:55 Calm 10.00 Fair CLR 46.4 21.2 37% 29.78 0.0
07 20:35 NW 3 10.00 Fair CLR 48.2 21.2 34% 29.77 0.0
07 20:15 NW 6 10.00 Fair CLR 50 21.2 32% 48 29.77 0.0
07 19:55 NW 8 10.00 Fair CLR 51.8 21.2 30% 29.76 0.0
07 19:35 NW 8 10.00 Partly Cloudy SCT090 53.6 21.2 28% 29.76 0.0
07 19:15 N 5 10.00 Partly Cloudy SCT090 53.6 21.2 28% 29.76 0.0
07 18:55 NW 8 10.00 Mostly Cloudy BKN090 53.6 21.2 28% 29.76 0.0
07 18:35 W 7 10.00 Mostly Cloudy BKN090 53.6 21.2 28% 29.76 0.0
07 18:15 W 6 10.00 Partly Cloudy SCT090 53.6 21.2 28% 29.77 0.0
07 17:55 W 6 G 17 10.00 Partly Cloudy SCT090 53.6 21.2 28% 29.77 0.0
07 17:35 W 12 G 16 10.00 Mostly Cloudy BKN090 53.6 21.2 28% 29.77 0.0
07 17:15 W 14 G 17 10.00 Mostly Cloudy BKN090 55.4 21.2 26% 29.77 0.0
07 16:55 NW 6 10.00 Mostly Cloudy SCT070 BKN090 53.6 23 30% 29.77 0.0
07 16:35 W 12 G 16 10.00 Mostly Cloudy SCT075 BKN090 51.8 21.2 30% 29.78 0.0
07 16:15 W 8 10.00 Mostly Cloudy SCT055 BKN075 BKN090 51.8 23 32% 29.78 0.0
07 15:55 SW 8 10.00 Mostly Cloudy SCT065 SCT070 BKN090 51.8 23 32% 29.79 0.0
07 15:35 NW 10 10.00 Mostly Cloudy SCT055 SCT065 BKN080 53.6 24.8 33% 29.8 0.0
07 15:15 NW 8 G 16 10.00 Mostly Cloudy SCT041 SCT050 BKN070 51.8 23 32% 29.8 0.0
07 14:55 W 10 G 21 10.00 Mostly Cloudy SCT043 BKN050 BKN065 50 23 35% 46 29.8 0.0
07 14:35 W 15 G 21 7.00 Overcast SCT048 BKN055 OVC065 50 23 35% 45 29.81 0.0
Date Time (cdt) Wind (mph) Vis. (mi.) Weather Sky Cond. Air Dwpt Max. Min. Relative Humidity Wind Chill (°F) Heat Index (°F) altimeter (in) sea level (mb) 1 hr 3 hr 6 hr
6 hour
Temperature (ºF) Pressure Precipitation (in)